Time;durP1;ratioP1;P1;durP2;ratioP2;P2;SDS_P1;SDS_P2;PMS_P1;PMS_P2;Temp;Humidity;BMP_temperature;BMP_pressure;BME280_temperature;BME280_humidity;BME280_pressure;Samples;Min_cycle;Max_cycle;Signal;HPM_P1;HPM_P2
2022/10/15 00:01:19;;;;;;;22.63;14.40;;;;;;;29.51;29.11;100513.28;5024475;28;20042;-76
2022/10/15 00:03:48;;;;;;;21.63;14.60;;;;;;;29.43;28.22;100511.00;5023678;28;20148;-75
2022/10/15 00:06:19;;;;;;;23.95;14.68;;;;;;;29.35;29.66;100518.56;5030393;28;20045;-76
2022/10/15 00:08:48;;;;;;;22.98;14.68;;;;;;;29.29;29.90;100512.69;5030461;28;20545;-75
2022/10/15 00:11:21;;;;;;;24.65;14.98;;;;;;;29.22;30.11;100512.16;5029509;28;20507;-76
2022/10/15 00:13:50;;;;;;;24.05;15.43;;;;;;;29.16;29.68;100515.13;5028223;28;20164;-76
2022/10/15 00:16:20;;;;;;;27.40;16.38;;;;;;;29.08;29.99;100509.34;5018313;28;20100;-75
2022/10/15 00:18:49;;;;;;;22.02;16.38;;;;;;;28.98;29.90;100515.13;5015727;28;20077;-75
2022/10/15 00:21:20;;;;;;;24.50;16.92;;;;;;;28.91;30.60;100507.50;5029591;28;20052;-76
2022/10/15 00:23:50;;;;;;;27.15;17.83;;;;;;;28.82;30.34;100503.53;5027904;28;20053;-75
2022/10/15 00:26:22;;;;;;;25.25;17.13;;;;;;;28.73;30.61;100504.84;5033152;28;20041;-75
2022/10/15 00:28:53;;;;;;;25.15;17.17;;;;;;;28.63;31.05;100502.72;5030273;28;20503;-76
2022/10/15 00:31:23;;;;;;;27.00;18.23;;;;;;;28.55;30.85;100495.13;5028555;28;20092;-76
2022/10/15 00:33:52;;;;;;;25.55;18.55;;;;;;;28.47;31.55;100492.81;5012967;28;20042;-76
2022/10/15 00:36:23;;;;;;;27.83;18.92;;;;;;;28.38;31.37;100493.22;5017862;28;20049;-75
2022/10/15 00:38:59;;;;;;;27.50;19.10;;;;;;;28.29;31.41;100493.69;4998928;28;20563;-76
2022/10/15 00:41:31;;;;;;;32.13;21.00;;;;;;;28.19;31.20;100493.28;5027749;28;20041;-76
2022/10/15 00:44:01;;;;;;;25.35;19.23;;;;;;;28.06;31.50;100493.00;5029485;28;20054;-75
2022/10/15 00:46:34;;;;;;;28.30;19.45;;;;;;;27.96;31.82;100497.88;5022361;28;20500;-76
2022/10/15 00:49:14;;;;;;;26.33;19.23;;;;;;;27.84;31.39;100493.16;5027063;28;20084;-75
2022/10/15 00:51:55;;;;;;;27.83;20.77;;;;;;;27.73;32.47;100500.72;5022919;28;20060;-75
2022/10/15 00:54:35;;;;;;;30.10;21.07;;;;;;;27.61;31.95;100496.84;5041637;28;20487;-76
2022/10/15 00:57:06;;;;;;;29.02;20.33;;;;;;;27.42;32.62;100482.63;5048007;28;20163;-75
2022/10/15 00:59:39;;;;;;;30.83;21.13;;;;;;;27.35;32.46;100490.91;5046014;28;20044;-76
2022/10/15 01:02:08;;;;;;;34.30;20.70;;;;;;;27.23;32.22;100496.75;5046244;28;20079;-76
2022/10/15 01:04:37;;;;;;;30.05;19.40;;;;;;;27.10;32.58;100496.41;5047705;28;20037;-76
2022/10/15 01:07:07;;;;;;;32.40;21.60;;;;;;;26.98;32.02;100493.38;5036409;28;20422;-76
2022/10/15 01:09:36;;;;;;;29.20;19.38;;;;;;;26.85;32.45;100490.41;5046919;28;20045;-74
2022/10/15 01:12:11;;;;;;;27.15;19.65;;;;;;;26.73;33.11;100497.06;5038650;28;20045;-75
2022/10/15 01:14:50;;;;;;;32.08;20.85;;;;;;;26.61;32.88;100489.63;5042476;28;20479;-76
2022/10/15 01:17:23;;;;;;;29.65;20.58;;;;;;;26.48;33.32;100498.09;5037741;28;20053;-75
2022/10/15 01:20:21;;;;;;;32.10;20.50;;;;;;;26.35;33.03;100488.88;5044205;28;20061;-76
2022/10/15 01:23:12;;;;;;;31.05;20.30;;;;;;;26.21;33.55;100483.28;5041121;28;20643;-76
2022/10/15 01:25:50;;;;;;;28.83;19.58;;;;;;;26.08;33.68;100480.22;5036734;28;20041;-76
2022/10/15 01:28:29;;;;;;;33.55;19.27;;;;;;;25.97;33.53;100479.78;5045656;28;20063;-75
2022/10/15 01:31:03;;;;;;;31.02;21.77;;;;;;;25.85;33.66;100475.78;5046372;28;20053;-75
2022/10/15 01:33:37;;;;;;;31.58;21.42;;;;;;;25.76;34.25;100470.84;5046480;28;20048;-75
2022/10/15 01:36:15;;;;;;;26.98;19.83;;;;;;;25.66;34.37;100478.28;5037107;28;20127;-76
2022/10/15 01:38:52;;;;;;;30.60;21.00;;;;;;;25.56;34.07;100468.94;5044681;28;20486;-76
2022/10/15 01:41:28;;;;;;;27.17;20.30;;;;;;;25.43;33.85;100468.53;5046439;28;20088;-75
2022/10/15 01:44:03;;;;;;;30.92;21.13;;;;;;;25.35;34.59;100481.19;5035358;28;20053;-75
2022/10/15 01:46:37;;;;;;;33.90;21.25;;;;;;;25.24;35.00;100478.91;5042517;28;20518;-75
2022/10/15 01:49:08;;;;;;;33.55;20.88;;;;;;;25.14;34.33;100480.13;5041609;28;20052;-75
2022/10/15 01:51:39;;;;;;;27.75;19.23;;;;;;;25.05;34.58;100484.81;5045676;28;20060;-75
2022/10/15 01:54:12;;;;;;;31.40;21.17;;;;;;;24.96;35.00;100484.28;5037414;28;20041;-76
2022/10/15 01:56:45;;;;;;;34.25;20.17;;;;;;;24.88;35.02;100482.78;5034498;28;20053;-75
2022/10/15 01:59:14;;;;;;;27.00;19.33;;;;;;;24.74;36.12;100479.75;5037876;28;20486;-75
2022/10/15 02:01:45;;;;;;;29.05;20.20;;;;;;;24.61;35.33;100478.41;5045694;28;20049;-76
2022/10/15 02:04:21;;;;;;;28.67;19.73;;;;;;;24.51;35.19;100482.25;5047210;28;20421;-76
2022/10/15 02:06:58;;;;;;;29.25;20.65;;;;;;;24.39;34.98;100479.06;5047982;28;20433;-75
2022/10/15 02:09:35;;;;;;;31.02;20.15;;;;;;;24.29;35.75;100490.84;5042138;28;20047;-74
2022/10/15 02:12:19;;;;;;;29.67;20.30;;;;;;;24.17;35.82;100483.31;5033268;28;20057;-75
2022/10/15 02:14:54;;;;;;;30.63;21.67;;;;;;;24.03;36.43;100479.31;5036113;28;20495;-74
2022/10/15 02:17:32;;;;;;;29.23;20.38;;;;;;;23.92;37.12;100488.50;5042781;28;20954;-75
2022/10/15 02:20:07;;;;;;;31.73;21.13;;;;;;;23.76;37.51;100488.06;5042523;28;20514;-73
2022/10/15 02:22:41;;;;;;;26.70;20.27;;;;;;;23.59;41.05;100491.16;5040388;28;20494;-75
2022/10/15 02:25:15;;;;;;;31.35;21.00;;;;;;;23.42;41.78;100489.84;5041938;28;20045;-75
2022/10/15 02:27:46;;;;;;;32.85;21.00;;;;;;;23.33;40.73;100498.03;5037903;28;20054;-75
2022/10/15 02:30:16;;;;;;;31.17;21.10;;;;;;;23.26;41.96;100498.25;5047364;28;20061;-76
2022/10/15 02:32:51;;;;;;;30.67;21.13;;;;;;;23.14;40.26;100497.66;5043881;28;20055;-75
2022/10/15 02:35:22;;;;;;;33.50;21.65;;;;;;;23.04;40.35;100493.53;5058568;28;20480;-75
2022/10/15 02:37:55;;;;;;;30.85;21.20;;;;;;;22.95;40.09;100502.53;5047684;28;20514;-75
2022/10/15 02:40:28;;;;;;;32.25;21.00;;;;;;;22.79;40.32;100499.41;5045469;28;20052;-74
2022/10/15 02:42:57;;;;;;;29.40;20.50;;;;;;;22.66;41.73;100498.00;5047884;28;20048;-75
2022/10/15 02:45:26;;;;;;;35.70;21.77;;;;;;;22.52;42.66;100492.19;5040047;28;20092;-75
2022/10/15 02:47:56;;;;;;;30.83;21.30;;;;;;;22.40;42.69;100498.59;5041084;28;20045;-75
2022/10/15 02:50:25;;;;;;;36.95;22.63;;;;;;;22.30;42.98;100497.09;5046738;28;20045;-74
2022/10/15 02:52:54;;;;;;;35.85;21.95;;;;;;;22.18;43.37;100499.06;5059746;28;20056;-75
2022/10/15 02:55:22;;;;;;;32.13;23.50;;;;;;;22.09;43.53;100501.91;5045942;28;20487;-75
2022/10/15 02:57:50;;;;;;;34.95;23.15;;;;;;;22.00;43.19;100501.25;5049352;28;20651;-75
2022/10/15 03:00:19;;;;;;;32.78;22.27;;;;;;;21.87;43.66;100501.50;5049780;28;20048;-74
2022/10/15 03:02:48;;;;;;;33.85;23.90;;;;;;;21.74;43.59;100497.41;5048403;28;20045;-75
2022/10/15 03:05:18;;;;;;;34.33;23.95;;;;;;;21.62;44.08;100495.00;5047325;28;20107;-75
2022/10/15 03:07:47;;;;;;;33.85;23.45;;;;;;;21.50;43.96;100502.25;5049592;28;20048;-75
2022/10/15 03:10:16;;;;;;;30.60;21.95;;;;;;;21.41;44.54;100507.69;5048678;28;20049;-75
2022/10/15 03:12:44;;;;;;;35.15;23.55;;;;;;;21.34;44.32;100511.31;5049134;28;20510;-76
2022/10/15 03:15:13;;;;;;;36.15;22.65;;;;;;;21.26;44.49;100514.09;5048643;28;20048;-74
2022/10/15 03:17:41;;;;;;;34.35;22.92;;;;;;;21.20;44.72;100513.34;5052520;28;20049;-75
2022/10/15 03:20:10;;;;;;;31.80;21.45;;;;;;;21.10;44.58;100520.53;5039572;28;20049;-75
2022/10/15 03:22:40;;;;;;;33.35;22.15;;;;;;;21.00;44.81;100513.69;5052012;28;20045;-75
2022/10/15 03:25:16;;;;;;;37.25;22.08;;;;;;;20.86;44.87;100509.50;5049231;28;20056;-74
2022/10/15 03:27:45;;;;;;;31.40;21.23;;;;;;;20.77;45.60;100504.41;5039554;28;20053;-74
2022/10/15 03:30:14;;;;;;;31.60;21.83;;;;;;;20.69;46.02;100517.69;5035972;28;20053;-75
2022/10/15 03:32:42;;;;;;;32.05;22.70;;;;;;;20.62;46.50;100515.19;5043440;28;20140;-75
2022/10/15 03:35:11;;;;;;;34.03;21.88;;;;;;;20.57;46.45;100517.00;5043727;28;20080;-75
2022/10/15 03:37:41;;;;;;;32.08;22.02;;;;;;;20.51;46.63;100513.56;5043468;28;20045;-75
2022/10/15 03:40:11;;;;;;;33.40;21.45;;;;;;;20.46;46.42;100509.28;5050667;28;20052;-75
2022/10/15 03:42:39;;;;;;;32.17;21.48;;;;;;;20.42;46.41;100512.84;5038548;28;20136;-75
2022/10/15 03:45:09;;;;;;;32.20;20.92;;;;;;;20.37;46.11;100518.16;5049104;28;20059;-75
2022/10/15 03:47:38;;;;;;;32.45;21.10;;;;;;;20.29;46.02;100506.88;5046463;28;20072;-75
2022/10/15 03:50:07;;;;;;;30.60;20.23;;;;;;;20.24;45.49;100503.44;5044484;28;20045;-75
2022/10/15 03:52:36;;;;;;;27.70;19.80;;;;;;;20.17;45.42;100507.91;5045613;27;20426;-74
2022/10/15 03:55:09;;;;;;;31.27;20.20;;;;;;;20.15;46.23;100504.44;5033607;28;20629;-74
2022/10/15 03:57:37;;;;;;;28.50;19.40;;;;;;;20.12;45.77;100506.25;5048466;28;20056;-75
2022/10/15 04:00:09;;;;;;;29.52;19.67;;;;;;;20.10;46.17;100508.91;5033586;28;20054;-75
2022/10/15 04:02:37;;;;;;;30.17;20.13;;;;;;;20.06;46.18;100510.69;5047197;28;20111;-75
2022/10/15 04:05:06;;;;;;;30.55;18.73;;;;;;;20.02;46.53;100503.75;5049837;28;20140;-75
2022/10/15 04:07:35;;;;;;;26.40;17.73;;;;;;;19.98;46.42;100511.69;5046750;28;20055;-75
2022/10/15 04:10:03;;;;;;;28.27;19.77;;;;;;;19.92;46.46;100517.03;5049788;28;20519;-74
2022/10/15 04:12:34;;;;;;;31.92;19.63;;;;;;;19.86;46.58;100513.59;5045309;28;20049;-74
2022/10/15 04:15:02;;;;;;;29.40;19.15;;;;;;;19.80;46.79;100513.66;5049963;28;20052;-75
2022/10/15 04:17:31;;;;;;;24.25;16.63;;;;;;;19.74;46.38;100503.22;5043893;28;20055;-75
2022/10/15 04:19:59;;;;;;;27.50;17.67;;;;;;;19.71;46.86;100499.78;5043127;28;20406;-74
2022/10/15 04:22:28;;;;;;;27.67;15.40;;;;;;;19.68;47.27;100500.66;5047681;28;20049;-75
2022/10/15 04:24:56;;;;;;;27.55;18.52;;;;;;;19.66;46.53;100502.44;5048463;28;20085;-74
2022/10/15 04:27:25;;;;;;;27.15;17.92;;;;;;;19.63;46.96;100505.97;5037463;28;20045;-73
2022/10/15 04:29:55;;;;;;;26.77;16.63;;;;;;;19.59;45.97;100499.00;5042166;28;20458;-73
2022/10/15 04:32:24;;;;;;;26.55;16.92;;;;;;;19.57;46.21;100507.78;5044687;28;20127;-74
2022/10/15 04:34:52;;;;;;;26.08;17.15;;;;;;;19.55;46.17;100517.44;5045687;28;20154;-75
2022/10/15 04:37:21;;;;;;;25.83;18.00;;;;;;;19.53;46.72;100524.44;5037447;28;20057;-74
2022/10/15 04:39:49;;;;;;;27.40;16.88;;;;;;;19.50;46.71;100533.22;5037292;28;20103;-74
2022/10/15 04:42:18;;;;;;;25.52;15.00;;;;;;;19.46;46.87;100529.75;5040495;28;20059;-74
2022/10/15 04:44:46;;;;;;;23.98;16.05;;;;;;;19.44;46.42;100536.78;5046737;28;20136;-75
2022/10/15 04:47:17;;;;;;;21.85;15.13;;;;;;;19.42;46.92;100538.56;5045553;28;20490;-74
2022/10/15 04:49:45;;;;;;;23.33;14.63;;;;;;;19.41;46.48;100536.81;5047289;28;20494;-75
2022/10/15 04:52:14;;;;;;;21.05;12.63;;;;;;;19.40;46.49;100537.72;5041917;28;20057;-74
2022/10/15 04:54:42;;;;;;;25.50;15.07;;;;;;;19.38;46.82;100541.25;5032879;28;20049;-74
2022/10/15 04:57:18;;;;;;;22.73;14.15;;;;;;;19.36;46.66;100546.50;5042034;28;20049;-73
2022/10/15 04:59:46;;;;;;;23.17;14.40;;;;;;;19.34;47.03;100550.88;5044612;28;20057;-75
2022/10/15 05:02:16;;;;;;;20.63;13.10;;;;;;;19.31;46.70;100550.94;5040218;28;20049;-74
2022/10/15 05:04:45;;;;;;;21.42;12.93;;;;;;;19.30;47.29;100553.56;5045548;28;20057;-75
2022/10/15 05:07:13;;;;;;;23.70;14.68;;;;;;;19.27;47.69;100543.09;5045979;28;20045;-75
2022/10/15 05:09:42;;;;;;;20.90;12.05;;;;;;;19.25;46.37;100556.22;5041541;28;20104;-74
2022/10/15 05:12:10;;;;;;;19.25;12.63;;;;;;;19.25;47.17;100545.72;5046359;28;20056;-74
2022/10/15 05:14:40;;;;;;;18.25;11.82;;;;;;;19.25;46.61;100554.47;5044573;28;20439;-74
2022/10/15 05:17:08;;;;;;;18.52;12.10;;;;;;;19.25;47.46;100556.22;5049606;28;20044;-74
2022/10/15 05:19:39;;;;;;;21.02;11.13;;;;;;;19.26;47.62;100560.56;5042593;28;20045;-74
2022/10/15 05:22:07;;;;;;;17.73;10.65;;;;;;;19.27;46.60;100559.69;5048928;28;20057;-74
2022/10/15 05:24:36;;;;;;;19.23;10.70;;;;;;;19.30;46.12;100570.16;5043986;28;20458;-74
2022/10/15 05:27:04;;;;;;;16.67;10.27;;;;;;;19.35;46.11;100568.34;5040729;28;20071;-75
2022/10/15 05:29:33;;;;;;;15.48;9.25;;;;;;;19.39;45.67;100579.69;5045958;28;20045;-75
2022/10/15 05:32:02;;;;;;;17.92;11.93;;;;;;;19.41;45.54;100578.78;5040606;28;20045;-74
2022/10/15 05:34:30;;;;;;;18.10;10.85;;;;;;;19.44;45.72;100573.50;5036209;28;20499;-75
2022/10/15 05:37:00;;;;;;;18.17;10.35;;;;;;;19.47;45.43;100572.63;5041175;28;20487;-74
2022/10/15 05:39:29;;;;;;;19.00;10.93;;;;;;;19.47;45.36;100564.75;5046858;28;20040;-75
2022/10/15 05:41:58;;;;;;;15.80;8.98;;;;;;;19.42;45.25;100554.31;5043668;28;20448;-76
2022/10/15 05:44:26;;;;;;;18.27;11.05;;;;;;;19.50;45.41;100566.47;5042647;28;20053;-76
2022/10/15 05:46:55;;;;;;;15.63;10.77;;;;;;;19.48;45.64;100569.13;5046877;28;20136;-76
2022/10/15 05:49:24;;;;;;;16.35;10.35;;;;;;;19.45;45.75;100562.16;5042116;28;20048;-75
2022/10/15 05:51:52;;;;;;;16.35;9.70;;;;;;;19.43;45.69;100556.03;5034399;28;20049;-75
2022/10/15 05:54:22;;;;;;;15.95;10.02;;;;;;;19.41;46.13;100551.69;5042729;28;20048;-74
2022/10/15 05:56:51;;;;;;;16.23;9.68;;;;;;;19.38;46.15;100552.59;5037152;28;20080;-75
2022/10/15 05:59:19;;;;;;;17.73;10.27;;;;;;;19.36;45.55;100550.88;5051074;28;20259;-74
2022/10/15 06:01:48;;;;;;;17.15;10.57;;;;;;;19.35;45.64;100560.47;5042310;28;21165;-75
2022/10/15 06:04:17;;;;;;;16.50;9.85;;;;;;;19.35;45.57;100554.38;5047376;28;20522;-74
2022/10/15 06:06:45;;;;;;;17.25;10.40;;;;;;;19.34;45.42;100550.03;5040231;28;20495;-76
2022/10/15 06:09:14;;;;;;;19.10;11.05;;;;;;;19.33;45.71;100546.50;5045812;28;20565;-76
2022/10/15 06:11:44;;;;;;;17.00;9.68;;;;;;;19.31;45.57;100550.94;5045673;28;20435;-74
2022/10/15 06:14:12;;;;;;;14.05;9.30;;;;;;;19.28;46.06;100545.69;5046701;28;20787;-76
2022/10/15 06:16:41;;;;;;;17.58;10.60;;;;;;;19.25;46.23;100550.97;5046317;28;20045;-75
2022/10/15 06:19:09;;;;;;;15.80;10.35;;;;;;;19.23;46.35;100555.34;5038938;28;20486;-76
2022/10/15 06:21:38;;;;;;;15.43;9.98;;;;;;;19.19;46.15;100558.88;5041763;28;20041;-75
2022/10/15 06:24:07;;;;;;;15.07;9.55;;;;;;;19.14;47.08;100548.44;5038732;28;20518;-74
2022/10/15 06:26:36;;;;;;;15.73;9.65;;;;;;;19.10;47.64;100549.34;5043901;28;20565;-75
2022/10/15 06:29:06;;;;;;;14.43;8.73;;;;;;;19.08;47.27;100555.50;5032099;28;20145;-75
2022/10/15 06:31:34;;;;;;;12.18;6.78;;;;;;;19.03;46.10;100547.66;5051632;28;20053;-75
2022/10/15 06:34:03;;;;;;;13.60;7.88;;;;;;;19.00;46.32;100542.47;5051257;28;20049;-75
2022/10/15 06:36:31;;;;;;;15.23;9.45;;;;;;;18.94;46.36;100535.50;5050447;28;20517;-75
2022/10/15 06:39:00;;;;;;;14.38;8.50;;;;;;;18.89;47.15;100532.06;5051713;28;20045;-75
2022/10/15 06:41:28;;;;;;;17.50;9.55;;;;;;;18.84;46.98;100537.34;5055850;28;20064;-75
2022/10/15 06:43:57;;;;;;;11.05;7.22;;;;;;;18.73;47.34;100519.91;5051258;28;20060;-75
2022/10/15 06:46:27;;;;;;;13.23;8.07;;;;;;;18.72;46.85;100533.91;5045290;28;20106;-75
2022/10/15 06:48:56;;;;;;;14.35;7.93;;;;;;;18.66;47.54;100533.94;5044768;28;20710;-75
2022/10/15 06:51:24;;;;;;;14.75;8.05;;;;;;;18.60;48.17;100530.50;5038715;28;20045;-76
2022/10/15 06:53:53;;;;;;;12.32;8.02;;;;;;;18.52;47.95;100527.06;5045811;28;20556;-75
2022/10/15 06:56:21;;;;;;;12.65;7.45;;;;;;;18.47;47.65;100531.47;5051358;28;20052;-75
2022/10/15 06:58:50;;;;;;;14.70;7.60;;;;;;;18.35;48.56;100523.69;5048913;28;20131;-75
2022/10/15 07:01:18;;;;;;;16.95;7.50;;;;;;;18.37;49.41;100533.28;5048450;28;20041;-75
2022/10/15 07:03:50;;;;;;;12.20;7.05;;;;;;;18.32;49.95;100539.41;5046542;28;20056;-76
2022/10/15 07:06:19;;;;;;;16.65;7.20;;;;;;;18.23;49.49;100521.13;5043391;28;20124;-75
2022/10/15 07:08:47;;;;;;;13.20;7.82;;;;;;;18.20;49.02;100530.72;5038274;28;20061;-75
2022/10/15 07:11:17;;;;;;;12.27;7.15;;;;;;;18.13;49.93;100534.28;5039114;28;20569;-75
2022/10/15 07:13:45;;;;;;;13.02;6.93;;;;;;;18.09;49.39;100534.28;5032717;28;20053;-75
2022/10/15 07:16:14;;;;;;;11.15;7.22;;;;;;;18.07;49.95;100536.91;5045813;28;20426;-75
2022/10/15 07:18:43;;;;;;;13.88;6.28;;;;;;;18.03;49.37;100524.75;5048795;28;20045;-76
2022/10/15 07:21:13;;;;;;;10.50;7.07;;;;;;;18.02;48.74;100525.59;5050132;28;20057;-75
2022/10/15 07:23:41;;;;;;;11.65;6.57;;;;;;;17.94;48.96;100527.41;5049268;28;20037;-76
2022/10/15 07:26:11;;;;;;;12.80;6.00;;;;;;;17.92;48.70;100534.38;5049385;28;20458;-75
2022/10/15 07:28:39;;;;;;;9.02;5.65;;;;;;;17.87;48.98;100530.91;5048682;28;20123;-75
2022/10/15 07:31:09;;;;;;;10.35;6.28;;;;;;;17.82;49.03;100525.69;5055419;28;20057;-75
2022/10/15 07:33:37;;;;;;;12.48;7.00;;;;;;;17.79;49.79;100526.53;5044448;28;20049;-75
2022/10/15 07:36:08;;;;;;;11.38;6.82;;;;;;;17.75;48.08;100524.81;5043210;28;20048;-76
2022/10/15 07:38:38;;;;;;;12.82;5.90;;;;;;;17.74;48.33;100525.69;5046300;28;20033;-76
2022/10/15 07:41:09;;;;;;;9.98;5.35;;;;;;;17.72;48.55;100532.66;5046316;28;20045;-76
2022/10/15 07:43:38;;;;;;;11.07;6.22;;;;;;;17.73;48.36;100528.28;5046368;28;20042;-76
2022/10/15 07:46:07;;;;;;;10.82;5.72;;;;;;;17.72;48.69;100535.28;5040938;28;20053;-75
2022/10/15 07:48:36;;;;;;;10.07;5.72;;;;;;;17.67;49.27;100531.81;5042742;28;20053;-76
2022/10/15 07:51:06;;;;;;;15.02;6.13;;;;;;;17.65;49.08;100536.19;5046239;28;20052;-76
2022/10/15 07:53:35;;;;;;;11.35;6.43;;;;;;;17.65;48.68;100537.94;5049984;27;20060;-76
2022/10/15 07:56:08;;;;;;;11.00;5.63;;;;;;;17.64;49.02;100536.16;5040301;28;20048;-76
2022/10/15 07:58:37;;;;;;;12.35;6.25;;;;;;;17.58;48.38;100534.47;5045000;28;20076;-75
2022/10/15 08:01:06;;;;;;;12.40;5.75;;;;;;;17.53;49.54;100536.22;5037135;28;20045;-76
2022/10/15 08:03:35;;;;;;;12.90;6.40;;;;;;;17.48;50.41;100527.53;5043794;28;20545;-75
2022/10/15 08:06:06;;;;;;;10.98;5.45;;;;;;;17.44;48.00;100525.78;5041180;28;20780;-76
2022/10/15 08:08:35;;;;;;;12.25;6.70;;;;;;;17.44;49.20;100523.16;5043667;28;20096;-76
2022/10/15 08:11:08;;;;;;;9.82;6.28;;;;;;;17.43;48.56;100521.41;5040930;28;20405;-74
2022/10/15 08:13:37;;;;;;;;;;;;;;;17.35;50.85;100526.66;5044661;28;20553;-76
2022/10/15 08:16:06;;;;;;;11.77;6.10;;;;;;;17.30;51.52;100524.06;5043274;28;20290;-77
2022/10/15 08:18:35;;;;;;;10.02;5.57;;;;;;;17.29;49.80;100524.91;5046201;28;20111;-76
2022/10/15 08:21:04;;;;;;;8.18;5.07;;;;;;;17.27;49.86;100518.84;5038053;28;20055;-76
2022/10/15 08:23:32;;;;;;;11.50;5.20;;;;;;;17.26;49.35;100516.22;5049101;28;20045;-75
2022/10/15 08:26:01;;;;;;;12.40;5.93;;;;;;;17.21;49.43;100517.97;5044844;28;20041;-76
2022/10/15 08:28:32;;;;;;;11.98;5.63;;;;;;;17.19;49.49;100530.19;5049072;28;20049;-75
2022/10/15 08:31:02;;;;;;;10.77;5.55;;;;;;;17.16;50.00;100518.00;5044552;28;20049;-76
2022/10/15 08:33:31;;;;;;;8.05;5.30;;;;;;;17.14;48.56;100519.72;5044858;28;20048;-76
2022/10/15 08:35:59;;;;;;;11.13;4.55;;;;;;;17.14;50.47;100515.38;5042285;28;20049;-76
2022/10/15 08:38:28;;;;;;;7.97;5.22;;;;;;;17.11;48.87;100517.09;5040415;28;20045;-75
2022/10/15 08:40:58;;;;;;;10.30;5.65;;;;;;;17.09;49.64;100513.66;5037561;28;20053;-75
2022/10/15 08:43:35;;;;;;;13.43;5.05;;;;;;;17.05;49.69;100522.34;5049707;28;20045;-74
2022/10/15 08:46:07;;;;;;;10.35;4.97;;;;;;;17.03;50.58;100524.09;5045145;28;20037;-74
2022/10/15 08:48:40;;;;;;;9.98;5.28;;;;;;;16.96;50.21;100518.00;5049272;28;20537;-75
2022/10/15 08:51:14;;;;;;;10.95;6.03;;;;;;;16.93;50.13;100518.88;5053116;28;20057;-76
2022/10/15 08:53:48;;;;;;;10.98;6.15;;;;;;;16.87;50.91;100516.25;5046618;28;20425;-76
2022/10/15 08:56:20;;;;;;;11.20;5.78;;;;;;;16.85;51.01;100512.78;5046015;28;20498;-76
2022/10/15 08:58:59;;;;;;;9.77;4.97;;;;;;;16.84;49.27;100511.03;5043979;28;20446;-76
2022/10/15 09:01:33;;;;;;;9.70;5.43;;;;;;;16.83;49.49;100504.06;5041395;28;20052;-76
2022/10/15 09:04:15;;;;;;;11.95;5.43;;;;;;;16.81;49.68;100504.94;5038002;28;20477;-76
2022/10/15 09:06:44;;;;;;;13.40;5.72;;;;;;;16.78;50.24;100502.28;5046832;28;20045;-76
2022/10/15 09:09:24;;;;;;;11.90;6.38;;;;;;;16.75;49.45;100501.41;5044691;28;20435;-76
2022/10/15 09:12:03;;;;;;;9.88;5.25;;;;;;;16.74;49.75;100504.91;5043982;28;20142;-76
2022/10/15 09:14:38;;;;;;;12.05;5.63;;;;;;;16.71;48.31;100490.97;5036423;28;20097;-76
2022/10/15 09:17:15;;;;;;;10.05;5.03;;;;;;;16.74;48.28;100496.19;5042628;28;20049;-76
2022/10/15 09:19:46;;;;;;;11.00;5.10;;;;;;;16.76;48.27;100495.31;5038067;28;20047;-75
2022/10/15 09:22:18;;;;;;;9.40;5.22;;;;;;;16.76;49.38;100491.84;5046258;28;20443;-76
2022/10/15 09:24:47;;;;;;;10.95;5.68;;;;;;;16.74;49.56;100490.97;5037266;28;20128;-74
2022/10/15 09:27:30;;;;;;;8.63;4.95;;;;;;;16.74;50.42;100494.47;5044283;28;20609;-76
2022/10/15 09:30:06;;;;;;;9.15;5.15;;;;;;;16.74;48.37;100498.78;5048045;28;20056;-75
2022/10/15 09:32:43;;;;;;;12.35;5.32;;;;;;;16.76;50.33;100500.53;5036402;28;20053;-76
2022/10/15 09:35:18;;;;;;;11.25;4.82;;;;;;;16.76;49.15;100510.13;5044995;28;20431;-76
2022/10/15 09:37:54;;;;;;;7.95;5.13;;;;;;;16.79;47.78;100509.25;5045248;28;20451;-76
2022/10/15 09:40:37;;;;;;;11.25;4.63;;;;;;;16.86;51.22;100511.03;5058538;28;20506;-74
2022/10/15 09:43:06;;;;;;;10.05;5.10;;;;;;;16.84;49.40;100516.25;5044248;28;20049;-75
2022/10/15 09:45:37;;;;;;;8.77;4.50;;;;;;;16.82;48.96;100515.38;5045623;28;20707;-75
2022/10/15 09:48:16;;;;;;;9.65;4.70;;;;;;;16.82;49.03;100512.78;5043501;28;20510;-77
2022/10/15 09:50:51;;;;;;;9.32;5.07;;;;;;;16.83;49.24;100511.03;5043352;28;20048;-75
2022/10/15 09:53:29;;;;;;;10.18;5.53;;;;;;;16.82;49.51;100498.84;5050566;28;20056;-76
2022/10/15 09:56:08;;;;;;;8.60;5.10;;;;;;;16.82;48.95;100502.31;5047840;28;20049;-76
2022/10/15 09:58:43;;;;;;;17.08;5.63;;;;;;;16.84;49.61;100497.97;5045467;28;20045;-76
2022/10/15 10:01:21;;;;;;;10.20;5.03;;;;;;;16.83;49.35;100491.00;5046232;28;20256;-77
2022/10/15 10:03:54;;;;;;;11.65;5.15;;;;;;;16.86;48.39;100492.72;5045456;28;20550;-76
2022/10/15 10:06:24;;;;;;;9.57;5.18;;;;;;;16.88;49.15;100484.03;5045149;28;20558;-76
2022/10/15 10:08:56;;;;;;;10.68;4.40;;;;;;;16.91;48.27;100486.66;5046578;28;20128;-76
2022/10/15 10:11:26;;;;;;;6.82;4.53;;;;;;;16.94;48.36;100489.25;5044955;28;20458;-75
2022/10/15 10:13:57;;;;;;;7.93;4.53;;;;;;;17.00;47.19;100487.53;5048683;28;20072;-77
2022/10/15 10:16:31;;;;;;;9.20;4.90;;;;;;;17.07;46.95;100489.25;5045779;28;20052;-76
2022/10/15 10:19:12;;;;;;;10.30;4.70;;;;;;;17.14;46.77;100485.75;5045297;28;20131;-75
2022/10/15 10:21:43;;;;;;;7.67;4.47;;;;;;;17.22;47.11;100494.44;5052869;28;20509;-76
2022/10/15 10:24:29;;;;;;;9.15;4.95;;;;;;;17.27;46.03;100497.94;5045593;28;20278;-76
2022/10/15 10:26:58;;;;;;;9.70;5.03;;;;;;;17.34;46.24;100494.44;5052292;28;20049;-75
2022/10/15 10:29:28;;;;;;;9.45;5.50;;;;;;;17.40;45.96;100500.50;5049987;28;20045;-76
2022/10/15 10:31:58;;;;;;;8.90;5.25;;;;;;;17.41;45.83;100484.81;5048604;28;20056;-76
2022/10/15 10:34:31;;;;;;;9.88;4.93;;;;;;;17.45;45.17;100491.75;5047369;28;20096;-76
2022/10/15 10:37:06;;;;;;;8.25;5.13;;;;;;;17.48;45.75;100496.13;5048418;28;20049;-76
2022/10/15 10:39:36;;;;;;;9.23;5.45;;;;;;;17.50;45.08;100495.25;5045964;28;20045;-76
2022/10/15 10:42:06;;;;;;;10.77;5.22;;;;;;;17.54;45.29;100490.88;5043609;28;20124;-76
2022/10/15 10:44:38;;;;;;;10.30;4.95;;;;;;;17.57;44.95;100493.50;5049670;28;20041;-76
2022/10/15 10:47:17;;;;;;;8.27;4.38;;;;;;;17.58;45.19;100489.97;5049808;28;20052;-76
2022/10/15 10:49:47;;;;;;;9.50;5.38;;;;;;;17.59;45.00;100483.88;5046410;28;20065;-76
2022/10/15 10:52:27;;;;;;;6.43;4.10;;;;;;;17.62;44.80;100483.88;5048902;28;20363;-76
2022/10/15 10:55:01;;;;;;;9.15;4.90;;;;;;;17.66;44.69;100490.84;5048622;28;20077;-75
2022/10/15 10:57:42;;;;;;;8.40;4.25;;;;;;;17.70;44.23;100492.53;5052065;28;20056;-76
2022/10/15 11:00:16;;;;;;;8.05;4.75;;;;;;;17.72;44.39;100493.41;5043441;28;20048;-76
2022/10/15 11:02:47;;;;;;;12.25;5.18;;;;;;;17.75;44.86;100493.41;5051024;28;20099;-77
2022/10/15 11:05:23;;;;;;;8.77;3.97;;;;;;;17.78;43.92;100492.53;5039201;28;20402;-75
2022/10/15 11:07:55;;;;;;;9.70;5.20;;;;;;;17.80;44.95;100488.16;5049654;28;20099;-75
2022/10/15 11:10:26;;;;;;;;;;;;;;;17.85;43.73;100490.78;5052896;28;20424;-75
2022/10/15 11:13:07;;;;;;;7.20;4.82;;;;;;;17.92;44.42;100479.41;5038922;28;20292;-73
2022/10/15 11:15:46;;;;;;;7.47;3.90;;;;;;;17.98;43.30;100479.34;5044209;28;20042;-74
2022/10/15 11:18:34;;;;;;;6.60;3.88;;;;;;;18.05;43.52;100483.72;5039597;28;20049;-75
2022/10/15 11:21:15;;;;;;;7.70;4.65;;;;;;;18.09;42.87;100485.41;5048362;28;20041;-74
2022/10/15 11:23:59;;;;;;;14.40;5.43;;;;;;;18.12;42.80;100485.41;5051091;28;20056;-75
2022/10/15 11:26:41;;;;;;;8.98;4.53;;;;;;;18.15;42.64;100488.00;5051396;28;20048;-74
2022/10/15 11:29:15;;;;;;;9.23;5.18;;;;;;;18.18;43.56;100494.97;5047424;28;20064;-74
2022/10/15 11:31:55;;;;;;;8.43;4.43;;;;;;;18.18;43.16;100482.75;5048248;28;20541;-75
2022/10/15 11:34:40;;;;;;;9.60;4.68;;;;;;;18.19;43.81;100481.88;5046816;28;20442;-73